N216TB KMSY-KPNS
Flight info
| Callsign | N216TB |
|---|---|
| Flight time | 0h 57m |
| Altitude | 13000 |
| Route | DCT GPT DCT SJI DCT LOXLY DCT HEGOB DCT TIGLE DCT MILVE DCT |
| Aircraft | B58/L-L/C |
Departure
| Time | 2026-05-08 13:28 |
|---|---|
| Airport | Louis Armstrong New Orleans International Airport (KMSY) |
Arrival
| Time | 2026-05-08 14:25 |
|---|---|
| Airport | Pensacola International Airport (KPNS) |
| Time | Latitude | Longitude | Altitude | Speed | Heading |
|---|---|---|---|---|---|
| 2026-05-08 13:16 | 29.99181 | -90.27193 | 5 ft | 0 kts | 16° |
| 2026-05-08 13:25 | 29.99182 | -90.27193 | 5 ft | 2 kts | 16° |
| 2026-05-08 13:25 | 29.99222 | -90.27168 | 5 ft | 7 kts | 59° |
| 2026-05-08 13:26 | 29.99251 | -90.27133 | 6 ft | 10 kts | 6° |
| 2026-05-08 13:26 | 29.99321 | -90.27124 | 8 ft | 4 kts | 11° |
| 2026-05-08 13:26 | 29.99322 | -90.27123 | 8 ft | 0 kts | 11° |
| 2026-05-08 13:27 | 29.99380 | -90.27102 | 8 ft | 11 kts | 42° |
| 2026-05-08 13:27 | 29.99389 | -90.27030 | 8 ft | 9 kts | 104° |
| 2026-05-08 13:27 | 29.99302 | -90.26668 | 10 ft | 96 kts | 108° |
| 2026-05-08 13:27 | 29.99055 | -90.25750 | 237 ft | 140 kts | 102° |
| 2026-05-08 13:28 | 29.98788 | -90.24603 | 644 ft | 154 kts | 104° |
| 2026-05-08 13:28 | 29.98662 | -90.23350 | 1022 ft | 164 kts | 76° |
| 2026-05-08 13:28 | 29.99346 | -90.22302 | 1386 ft | 173 kts | 39° |
| 2026-05-08 13:28 | 30.00342 | -90.21500 | 1757 ft | 175 kts | 44° |
| 2026-05-08 13:29 | 30.01149 | -90.20499 | 2122 ft | 171 kts | 59° |
| 2026-05-08 13:29 | 30.01688 | -90.19279 | 2504 ft | 171 kts | 73° |
| 2026-05-08 13:29 | 30.02135 | -90.18010 | 2932 ft | 171 kts | 73° |
| 2026-05-08 13:29 | 30.02590 | -90.16729 | 3367 ft | 173 kts | 72° |
| 2026-05-08 13:30 | 30.03047 | -90.15442 | 3796 ft | 174 kts | 71° |
| 2026-05-08 13:30 | 30.03503 | -90.14151 | 4255 ft | 175 kts | 71° |
| 2026-05-08 13:30 | 30.03965 | -90.12843 | 4692 ft | 177 kts | 72° |
| 2026-05-08 13:30 | 30.04432 | -90.11520 | 5131 ft | 179 kts | 71° |
| 2026-05-08 13:31 | 30.04904 | -90.10191 | 5556 ft | 178 kts | 71° |
| 2026-05-08 13:31 | 30.05374 | -90.08869 | 5993 ft | 178 kts | 71° |
| 2026-05-08 13:31 | 30.05835 | -90.07567 | 6426 ft | 178 kts | 71° |
| 2026-05-08 13:31 | 30.06303 | -90.06243 | 6840 ft | 178 kts | 71° |
| 2026-05-08 13:32 | 30.06770 | -90.04924 | 7257 ft | 177 kts | 71° |
| 2026-05-08 13:32 | 30.07236 | -90.03609 | 7680 ft | 177 kts | 71° |
| 2026-05-08 13:32 | 30.07701 | -90.02295 | 8110 ft | 177 kts | 71° |
| 2026-05-08 13:32 | 30.08166 | -90.00980 | 8541 ft | 177 kts | 71° |
| 2026-05-08 13:33 | 30.08631 | -89.99664 | 8979 ft | 177 kts | 71° |
| 2026-05-08 13:33 | 30.09095 | -89.98352 | 9420 ft | 176 kts | 71° |
| 2026-05-08 13:33 | 30.09551 | -89.97060 | 9864 ft | 176 kts | 70° |
| 2026-05-08 13:33 | 30.10012 | -89.95754 | 10278 ft | 175 kts | 70° |
| 2026-05-08 13:34 | 30.10471 | -89.94456 | 10689 ft | 175 kts | 70° |
| 2026-05-08 13:34 | 30.10929 | -89.93156 | 11102 ft | 175 kts | 69° |
| 2026-05-08 13:34 | 30.11389 | -89.91853 | 11523 ft | 175 kts | 69° |
| 2026-05-08 13:34 | 30.11846 | -89.90556 | 11942 ft | 175 kts | 69° |
| 2026-05-08 13:35 | 30.12303 | -89.89260 | 12380 ft | 174 kts | 68° |
| 2026-05-08 13:35 | 30.12759 | -89.87967 | 12818 ft | 173 kts | 68° |
| 2026-05-08 13:35 | 30.13227 | -89.86635 | 13013 ft | 191 kts | 68° |
| 2026-05-08 13:35 | 30.13734 | -89.85167 | 13022 ft | 208 kts | 68° |
| 2026-05-08 13:36 | 30.14288 | -89.83581 | 13021 ft | 216 kts | 68° |
| 2026-05-08 13:36 | 30.14861 | -89.81956 | 13013 ft | 221 kts | 68° |
| 2026-05-08 13:36 | 30.15437 | -89.80319 | 13012 ft | 219 kts | 68° |
| 2026-05-08 13:36 | 30.16005 | -89.78704 | 13016 ft | 216 kts | 68° |
| 2026-05-08 13:37 | 30.16570 | -89.77098 | 13014 ft | 215 kts | 68° |
| 2026-05-08 13:37 | 30.17129 | -89.75505 | 13012 ft | 214 kts | 68° |
| 2026-05-08 13:37 | 30.17687 | -89.73913 | 13010 ft | 213 kts | 68° |
| 2026-05-08 13:37 | 30.18245 | -89.72321 | 13008 ft | 213 kts | 68° |
| 2026-05-08 13:38 | 30.18794 | -89.70753 | 13010 ft | 214 kts | 68° |
| 2026-05-08 13:38 | 30.19351 | -89.69162 | 13010 ft | 214 kts | 68° |
| 2026-05-08 13:38 | 30.19908 | -89.67569 | 13011 ft | 214 kts | 68° |
| 2026-05-08 13:38 | 30.20463 | -89.65982 | 13012 ft | 213 kts | 68° |
| 2026-05-08 13:39 | 30.21020 | -89.64387 | 13009 ft | 213 kts | 68° |
| 2026-05-08 13:39 | 30.21574 | -89.62796 | 13012 ft | 213 kts | 68° |
| 2026-05-08 13:39 | 30.22124 | -89.61205 | 13012 ft | 213 kts | 68° |
| 2026-05-08 13:39 | 30.22669 | -89.59616 | 13014 ft | 213 kts | 69° |
| 2026-05-08 13:40 | 30.22916 | -89.58892 | 13014 ft | 213 kts | 69° |
| 2026-05-08 13:40 | 30.23251 | -89.57907 | 13014 ft | 214 kts | 69° |
| 2026-05-08 13:40 | 30.23622 | -89.56813 | 13014 ft | 214 kts | 69° |
| 2026-05-08 13:41 | 30.23921 | -89.55928 | 13015 ft | 214 kts | 69° |
| 2026-05-08 13:42 | 30.24460 | -89.54324 | 13016 ft | 214 kts | 69° |
| 2026-05-08 13:42 | 30.24994 | -89.52721 | 13016 ft | 214 kts | 69° |
| 2026-05-08 13:42 | 30.25518 | -89.51135 | 13015 ft | 214 kts | 69° |
| 2026-05-08 13:42 | 30.26045 | -89.49528 | 13016 ft | 214 kts | 69° |
| 2026-05-08 13:43 | 30.26444 | -89.48308 | 13016 ft | 213 kts | 70° |
| 2026-05-08 13:43 | 30.26615 | -89.47782 | 13018 ft | 213 kts | 70° |
| 2026-05-08 13:43 | 30.27134 | -89.46175 | 13014 ft | 213 kts | 70° |
| 2026-05-08 13:43 | 30.27652 | -89.44565 | 13015 ft | 214 kts | 70° |
| 2026-05-08 13:44 | 30.28167 | -89.42954 | 13018 ft | 214 kts | 70° |
| 2026-05-08 13:44 | 30.28678 | -89.41341 | 13017 ft | 213 kts | 70° |
| 2026-05-08 13:44 | 30.29185 | -89.39729 | 13013 ft | 213 kts | 70° |
| 2026-05-08 13:44 | 30.29681 | -89.38140 | 13015 ft | 213 kts | 71° |
| 2026-05-08 13:45 | 30.30182 | -89.36528 | 13016 ft | 213 kts | 71° |
| 2026-05-08 13:45 | 30.30678 | -89.34917 | 13017 ft | 213 kts | 71° |
| 2026-05-08 13:45 | 30.31172 | -89.33304 | 13013 ft | 212 kts | 71° |
| 2026-05-08 13:45 | 30.31663 | -89.31690 | 13014 ft | 212 kts | 71° |
| 2026-05-08 13:46 | 30.32149 | -89.30076 | 13015 ft | 213 kts | 71° |
| 2026-05-08 13:46 | 30.32633 | -89.28460 | 13015 ft | 213 kts | 72° |
| 2026-05-08 13:46 | 30.33108 | -89.26863 | 13016 ft | 213 kts | 72° |
| 2026-05-08 13:46 | 30.33587 | -89.25238 | 13018 ft | 213 kts | 72° |
| 2026-05-08 13:47 | 30.34062 | -89.23614 | 13017 ft | 213 kts | 72° |
| 2026-05-08 13:47 | 30.34535 | -89.21987 | 13019 ft | 213 kts | 72° |
| 2026-05-08 13:47 | 30.35005 | -89.20357 | 13019 ft | 213 kts | 72° |
| 2026-05-08 13:47 | 30.35470 | -89.18730 | 13018 ft | 213 kts | 72° |
| 2026-05-08 13:48 | 30.35933 | -89.17099 | 13016 ft | 213 kts | 72° |
| 2026-05-08 13:48 | 30.36391 | -89.15474 | 13016 ft | 213 kts | 73° |
| 2026-05-08 13:48 | 30.36840 | -89.13865 | 13018 ft | 212 kts | 73° |
| 2026-05-08 13:48 | 30.37290 | -89.12239 | 13016 ft | 212 kts | 73° |
| 2026-05-08 13:49 | 30.37739 | -89.10608 | 13016 ft | 212 kts | 73° |
| 2026-05-08 13:49 | 30.38183 | -89.08981 | 13015 ft | 212 kts | 73° |
| 2026-05-08 13:49 | 30.38622 | -89.07358 | 13016 ft | 212 kts | 73° |
| 2026-05-08 13:49 | 30.39061 | -89.05727 | 13014 ft | 212 kts | 74° |
| 2026-05-08 13:50 | 30.39494 | -89.04102 | 13016 ft | 211 kts | 74° |
| 2026-05-08 13:50 | 30.39924 | -89.02474 | 13019 ft | 211 kts | 74° |
| 2026-05-08 13:50 | 30.40349 | -89.00848 | 13015 ft | 211 kts | 74° |
| 2026-05-08 13:50 | 30.40766 | -88.99242 | 13008 ft | 211 kts | 74° |
| 2026-05-08 13:51 | 30.41185 | -88.97616 | 13007 ft | 211 kts | 75° |
| 2026-05-08 13:51 | 30.41602 | -88.95987 | 13009 ft | 210 kts | 75° |
| 2026-05-08 13:51 | 30.42012 | -88.94365 | 13006 ft | 210 kts | 75° |
| 2026-05-08 13:51 | 30.42422 | -88.92736 | 13007 ft | 210 kts | 75° |
| 2026-05-08 13:52 | 30.42826 | -88.91111 | 13008 ft | 210 kts | 75° |
| 2026-05-08 13:52 | 30.43227 | -88.89484 | 13009 ft | 210 kts | 75° |
| 2026-05-08 13:52 | 30.43618 | -88.87881 | 13007 ft | 210 kts | 75° |
| 2026-05-08 13:52 | 30.44012 | -88.86255 | 13008 ft | 209 kts | 76° |
| 2026-05-08 13:53 | 30.44402 | -88.84631 | 13009 ft | 209 kts | 76° |
| 2026-05-08 13:53 | 30.44789 | -88.83005 | 13008 ft | 209 kts | 76° |
| 2026-05-08 13:53 | 30.45192 | -88.81382 | 13006 ft | 209 kts | 68° |
| 2026-05-08 13:53 | 30.46087 | -88.80103 | 13000 ft | 205 kts | 33° |
| 2026-05-08 13:54 | 30.47250 | -88.79169 | 13002 ft | 204 kts | 30° |
| 2026-05-08 13:54 | 30.48407 | -88.78262 | 13007 ft | 203 kts | 30° |
| 2026-05-08 13:54 | 30.49598 | -88.77336 | 13008 ft | 203 kts | 30° |
| 2026-05-08 13:54 | 30.50757 | -88.76438 | 13013 ft | 203 kts | 30° |
| 2026-05-08 13:55 | 30.51932 | -88.75530 | 13015 ft | 203 kts | 30° |
| 2026-05-08 13:55 | 30.53106 | -88.74626 | 13020 ft | 203 kts | 30° |
| 2026-05-08 13:55 | 30.55456 | -88.72820 | 13038 ft | 202 kts | 30° |
| 2026-05-08 13:56 | 30.56568 | -88.71814 | 13041 ft | 204 kts | 42° |
| 2026-05-08 13:56 | 30.57390 | -88.70467 | 13043 ft | 206 kts | 62° |
| 2026-05-08 13:56 | 30.58004 | -88.68970 | 13041 ft | 206 kts | 64° |
| 2026-05-08 13:56 | 30.58624 | -88.67500 | 13040 ft | 205 kts | 63° |
| 2026-05-08 13:57 | 30.59279 | -88.66027 | 13042 ft | 206 kts | 62° |
| 2026-05-08 13:57 | 30.59936 | -88.64554 | 13043 ft | 205 kts | 62° |
| 2026-05-08 13:57 | 30.60591 | -88.63081 | 13037 ft | 205 kts | 62° |
| 2026-05-08 13:57 | 30.61244 | -88.61609 | 13039 ft | 205 kts | 62° |
| 2026-05-08 13:58 | 30.61897 | -88.60136 | 13041 ft | 205 kts | 62° |
| 2026-05-08 13:58 | 30.62548 | -88.58669 | 13039 ft | 205 kts | 62° |
| 2026-05-08 13:58 | 30.63198 | -88.57200 | 13041 ft | 204 kts | 62° |
| 2026-05-08 13:58 | 30.63849 | -88.55732 | 13044 ft | 204 kts | 62° |
| 2026-05-08 13:59 | 30.64498 | -88.54267 | 13041 ft | 204 kts | 62° |
| 2026-05-08 13:59 | 30.65137 | -88.52821 | 13041 ft | 204 kts | 62° |
| 2026-05-08 13:59 | 30.65787 | -88.51354 | 13040 ft | 204 kts | 62° |
| 2026-05-08 13:59 | 30.66436 | -88.49886 | 13042 ft | 204 kts | 62° |
| 2026-05-08 14:00 | 30.67084 | -88.48421 | 13057 ft | 204 kts | 62° |
| 2026-05-08 14:00 | 30.67732 | -88.46954 | 13059 ft | 204 kts | 62° |
| 2026-05-08 14:00 | 30.68381 | -88.45486 | 13060 ft | 204 kts | 62° |
| 2026-05-08 14:00 | 30.69029 | -88.44019 | 13060 ft | 204 kts | 62° |
| 2026-05-08 14:01 | 30.69677 | -88.42552 | 13057 ft | 204 kts | 62° |
| 2026-05-08 14:01 | 30.70316 | -88.41103 | 13064 ft | 204 kts | 62° |
| 2026-05-08 14:01 | 30.70965 | -88.39631 | 13063 ft | 204 kts | 62° |
| 2026-05-08 14:01 | 30.71612 | -88.38163 | 13060 ft | 205 kts | 62° |
| 2026-05-08 14:02 | 30.72261 | -88.36689 | 13061 ft | 205 kts | 62° |
| 2026-05-08 14:02 | 30.72657 | -88.35112 | 13060 ft | 205 kts | 86° |
| 2026-05-08 14:02 | 30.72751 | -88.33461 | 13046 ft | 205 kts | 86° |
| 2026-05-08 14:02 | 30.72867 | -88.31808 | 13049 ft | 205 kts | 86° |
| 2026-05-08 14:03 | 30.72979 | -88.30154 | 13040 ft | 205 kts | 86° |
| 2026-05-08 14:03 | 30.73086 | -88.28522 | 13044 ft | 206 kts | 86° |
| 2026-05-08 14:03 | 30.73193 | -88.26862 | 13036 ft | 206 kts | 86° |
| 2026-05-08 14:03 | 30.73302 | -88.25204 | 13038 ft | 206 kts | 86° |
| 2026-05-08 14:04 | 30.73410 | -88.23545 | 13039 ft | 206 kts | 86° |
| 2026-05-08 14:04 | 30.73518 | -88.21886 | 13038 ft | 206 kts | 86° |
| 2026-05-08 14:04 | 30.73626 | -88.20225 | 13046 ft | 206 kts | 86° |
| 2026-05-08 14:04 | 30.73734 | -88.18564 | 13044 ft | 206 kts | 86° |
| 2026-05-08 14:05 | 30.73842 | -88.16898 | 13013 ft | 208 kts | 86° |
| 2026-05-08 14:05 | 30.73947 | -88.15221 | 12712 ft | 207 kts | 86° |
| 2026-05-08 14:05 | 30.74054 | -88.13559 | 12414 ft | 206 kts | 86° |
| 2026-05-08 14:05 | 30.74161 | -88.11922 | 12122 ft | 205 kts | 87° |
| 2026-05-08 14:06 | 30.74267 | -88.10273 | 11827 ft | 204 kts | 87° |
| 2026-05-08 14:06 | 30.74372 | -88.08637 | 11538 ft | 203 kts | 87° |
| 2026-05-08 14:06 | 30.74476 | -88.07005 | 11252 ft | 202 kts | 87° |
| 2026-05-08 14:06 | 30.74580 | -88.05387 | 11041 ft | 197 kts | 87° |
| 2026-05-08 14:07 | 30.74680 | -88.03852 | 11033 ft | 187 kts | 87° |
| 2026-05-08 14:07 | 30.74779 | -88.02325 | 11031 ft | 192 kts | 88° |
| 2026-05-08 14:07 | 30.74876 | -88.00752 | 11038 ft | 196 kts | 87° |
| 2026-05-08 14:07 | 30.74974 | -87.99184 | 11042 ft | 199 kts | 87° |
| 2026-05-08 14:08 | 30.75076 | -87.97579 | 11045 ft | 200 kts | 87° |
| 2026-05-08 14:08 | 30.75178 | -87.95964 | 11046 ft | 201 kts | 87° |
| 2026-05-08 14:08 | 30.75280 | -87.94346 | 11045 ft | 201 kts | 87° |
| 2026-05-08 14:08 | 30.75382 | -87.92723 | 11044 ft | 201 kts | 87° |
| 2026-05-08 14:09 | 30.75484 | -87.91100 | 11047 ft | 201 kts | 87° |
| 2026-05-08 14:09 | 30.75586 | -87.89477 | 11047 ft | 202 kts | 87° |
| 2026-05-08 14:09 | 30.75687 | -87.87849 | 11043 ft | 202 kts | 87° |
| 2026-05-08 14:09 | 30.75787 | -87.86241 | 11046 ft | 202 kts | 87° |
| 2026-05-08 14:10 | 30.75889 | -87.84612 | 11045 ft | 202 kts | 87° |
| 2026-05-08 14:10 | 30.75990 | -87.82986 | 11043 ft | 202 kts | 87° |
| 2026-05-08 14:10 | 30.76073 | -87.81356 | 11047 ft | 201 kts | 93° |
| 2026-05-08 14:10 | 30.75756 | -87.79798 | 11046 ft | 198 kts | 118° |
| 2026-05-08 14:11 | 30.74994 | -87.78501 | 11044 ft | 193 kts | 139° |
| 2026-05-08 14:11 | 30.74043 | -87.77405 | 11041 ft | 193 kts | 140° |
| 2026-05-08 14:11 | 30.73102 | -87.76294 | 11042 ft | 193 kts | 140° |
| 2026-05-08 14:11 | 30.72159 | -87.75188 | 11039 ft | 193 kts | 140° |
| 2026-05-08 14:12 | 30.71214 | -87.74086 | 11038 ft | 193 kts | 140° |
| 2026-05-08 14:12 | 30.70280 | -87.72996 | 11036 ft | 193 kts | 140° |
| 2026-05-08 14:12 | 30.69333 | -87.71890 | 11036 ft | 193 kts | 140° |
| 2026-05-08 14:12 | 30.68386 | -87.70784 | 11036 ft | 193 kts | 140° |
| 2026-05-08 14:13 | 30.67442 | -87.69682 | 11029 ft | 192 kts | 140° |
| 2026-05-08 14:13 | 30.66488 | -87.68573 | 10748 ft | 193 kts | 140° |
| 2026-05-08 14:13 | 30.65542 | -87.67470 | 10466 ft | 192 kts | 139° |
| 2026-05-08 14:13 | 30.64606 | -87.66376 | 10187 ft | 191 kts | 139° |
| 2026-05-08 14:14 | 30.63674 | -87.65289 | 9909 ft | 190 kts | 139° |
| 2026-05-08 14:14 | 30.62757 | -87.64220 | 9606 ft | 189 kts | 139° |
| 2026-05-08 14:14 | 30.61827 | -87.63138 | 9302 ft | 190 kts | 139° |
| 2026-05-08 14:14 | 30.60895 | -87.62052 | 9003 ft | 190 kts | 139° |
| 2026-05-08 14:15 | 30.59962 | -87.60966 | 8705 ft | 190 kts | 139° |
| 2026-05-08 14:15 | 30.59029 | -87.59880 | 8410 ft | 190 kts | 139° |
| 2026-05-08 14:15 | 30.58094 | -87.58792 | 8117 ft | 190 kts | 138° |
| 2026-05-08 14:15 | 30.57159 | -87.57704 | 7827 ft | 190 kts | 138° |
| 2026-05-08 14:16 | 30.56226 | -87.56619 | 7545 ft | 190 kts | 138° |
| 2026-05-08 14:16 | 30.55308 | -87.55551 | 7263 ft | 189 kts | 139° |
| 2026-05-08 14:16 | 30.54383 | -87.54476 | 6975 ft | 188 kts | 138° |
| 2026-05-08 14:16 | 30.53460 | -87.53403 | 6698 ft | 187 kts | 138° |
| 2026-05-08 14:17 | 30.52542 | -87.52337 | 6415 ft | 187 kts | 138° |
| 2026-05-08 14:17 | 30.51627 | -87.51274 | 6120 ft | 186 kts | 138° |
| 2026-05-08 14:17 | 30.50712 | -87.50211 | 5825 ft | 186 kts | 138° |
| 2026-05-08 14:17 | 30.49793 | -87.49144 | 5531 ft | 187 kts | 137° |
| 2026-05-08 14:18 | 30.48874 | -87.48079 | 5240 ft | 187 kts | 138° |
| 2026-05-08 14:18 | 30.47953 | -87.47012 | 4955 ft | 187 kts | 137° |
| 2026-05-08 14:18 | 30.47046 | -87.45958 | 4665 ft | 188 kts | 138° |
| 2026-05-08 14:18 | 30.46120 | -87.44884 | 4372 ft | 189 kts | 137° |
| 2026-05-08 14:19 | 30.45195 | -87.43814 | 4070 ft | 187 kts | 138° |
| 2026-05-08 14:19 | 30.44283 | -87.42752 | 3781 ft | 185 kts | 136° |
| 2026-05-08 14:19 | 30.43599 | -87.41500 | 3483 ft | 186 kts | 111° |
| 2026-05-08 14:19 | 30.43405 | -87.40023 | 3190 ft | 188 kts | 86° |
| 2026-05-08 14:20 | 30.43646 | -87.38552 | 3034 ft | 181 kts | 76° |
| 2026-05-08 14:20 | 30.43904 | -87.37154 | 3029 ft | 174 kts | 78° |
| 2026-05-08 14:20 | 30.44148 | -87.35803 | 3027 ft | 173 kts | 78° |
| 2026-05-08 14:20 | 30.44400 | -87.34446 | 3020 ft | 173 kts | 77° |
| 2026-05-08 14:21 | 30.44612 | -87.33143 | 3010 ft | 146 kts | 87° |
| 2026-05-08 14:21 | 30.44599 | -87.31963 | 3023 ft | 149 kts | 79° |
| 2026-05-08 14:21 | 30.44795 | -87.30788 | 3021 ft | 144 kts | 79° |
| 2026-05-08 14:21 | 30.44923 | -87.29670 | 2785 ft | 125 kts | 83° |
| 2026-05-08 14:22 | 30.45037 | -87.28718 | 2320 ft | 115 kts | 72° |
| 2026-05-08 14:22 | 30.45298 | -87.27871 | 1875 ft | 108 kts | 63° |
| 2026-05-08 14:22 | 30.45559 | -87.27058 | 1387 ft | 105 kts | 68° |
| 2026-05-08 14:22 | 30.45802 | -87.26294 | 993 ft | 103 kts | 66° |
| 2026-05-08 14:23 | 30.46031 | -87.25521 | 798 ft | 95 kts | 70° |
| 2026-05-08 14:23 | 30.46200 | -87.24781 | 667 ft | 98 kts | 75° |
| 2026-05-08 14:23 | 30.46359 | -87.24042 | 734 ft | 94 kts | 73° |
| 2026-05-08 14:23 | 30.46470 | -87.23278 | 763 ft | 95 kts | 81° |
| 2026-05-08 14:24 | 30.46564 | -87.22552 | 760 ft | 91 kts | 74° |
| 2026-05-08 14:24 | 30.46713 | -87.21831 | 553 ft | 94 kts | 71° |
| 2026-05-08 14:24 | 30.46831 | -87.21111 | 463 ft | 92 kts | 73° |
| 2026-05-08 14:24 | 30.46969 | -87.20405 | 318 ft | 85 kts | 69° |
| 2026-05-08 14:25 | 30.47103 | -87.19754 | 161 ft | 81 kts | 75° |
| 2026-05-08 14:25 | 30.47205 | -87.19217 | 99 ft | 53 kts | 78° |
| 2026-05-08 14:25 | 30.47246 | -87.19093 | 102 ft | 44 kts | 74° |